Time;durP1;ratioP1;P1;durP2;ratioP2;P2;SDS_P1;SDS_P2;PMS_P1;PMS_P2;Temp;Humidity;BMP_temperature;BMP_pressure;BME280_temperature;BME280_humidity;BME280_pressure;Samples;Min_cycle;Max_cycle;Signal;HPM_P1;HPM_P2
2022/09/19 00:00:33;;;;;;;;;;;;;;;20.96;29.29;97721.19;5036797;28;900;-78
2022/09/19 00:02:59;;;;;;;;;;;;;;;21.09;29.37;97724.88;5003008;28;1246;-78
2022/09/19 00:05:24;;;;;;;;;;;;;;;20.98;29.13;97727.19;5036739;28;794;-79
2022/09/19 00:07:50;;;;;;;;;;;;;;;20.93;29.43;97731.34;5019024;28;1910;-78
2022/09/19 00:10:15;;;;;;;;;;;;;;;21.00;29.20;97736.81;5002831;28;1222;-77
2022/09/19 00:12:41;;;;;;;;;;;;;;;20.72;29.66;97737.59;5002444;28;842;-78
2022/09/19 00:15:06;;;;;;;;;;;;;;;20.83;29.50;97731.66;5002446;28;844;-78
2022/09/19 00:17:32;;;;;;;;;;;;;;;20.96;29.18;97732.50;5022084;28;1092;-78
2022/09/19 00:19:57;;;;;;;;;;;;;;;20.94;29.17;97730.13;5040336;28;802;-78
2022/09/19 00:22:23;;;;;;;;;;;;;;;21.00;29.09;97733.22;5006309;28;1128;-78
2022/09/19 00:24:49;;;;;;;;;;;;;;;21.27;28.96;97735.66;5022641;28;857;-78
2022/09/19 00:27:19;;;;;;;;;;;;;;;21.55;28.38;97734.03;5040071;28;1910;-78
2022/09/19 00:29:44;;;;;;;;;;;;;;;21.38;28.99;97741.03;4989237;28;1205;-78
2022/09/19 00:32:13;;;;;;;;;;;;;;;21.29;28.79;97742.44;5038739;28;1298;-78
2022/09/19 00:34:40;;;;;;;;;;;;;;;21.07;29.44;97744.31;5006463;28;855;-78
2022/09/19 00:37:06;;;;;;;;;;;;;;;20.97;29.08;97745.41;5006597;28;1262;-78
2022/09/19 00:39:31;;;;;;;;;;;;;;;21.01;29.02;97748.94;5005696;28;1294;-78
2022/09/19 00:41:57;;;;;;;;;;;;;;;21.06;28.99;97759.69;5022419;28;1513;-78
2022/09/19 00:44:22;;;;;;;;;;;;;;;21.10;29.16;97754.75;4981782;28;932;-78
2022/09/19 00:47:08;;;;;;;;;;;;;;;20.92;29.14;97760.09;4998480;28;1103;-78
2022/09/19 00:49:37;;;;;;;;;;;;;;;20.88;29.22;97765.03;4998072;28;1104;-78
2022/09/19 00:52:03;;;;;;;;;;;;;;;21.26;28.67;97760.31;4981959;28;740;-78
2022/09/19 00:54:40;;;;;;;;;;;;;;;21.45;28.58;97764.25;4998281;28;807;-78
2022/09/19 00:57:06;;;;;;;;;;;;;;;21.40;28.81;97759.16;4981983;28;1155;-78
2022/09/19 00:59:33;;;;;;;;;;;;;;;21.13;29.31;97756.66;4978749;28;1233;-78
2022/09/19 01:02:02;;;;;;;;;;;;;;;21.07;29.47;97755.63;4978419;28;848;-78
2022/09/19 01:04:30;;;;;;;;;;;;;;;21.03;29.74;97754.91;4978462;28;1309;-78
2022/09/19 01:06:59;;;;;;;;;;;;;;;21.23;29.66;97752.72;4979056;28;870;-78
2022/09/19 01:09:24;;;;;;;;;;;;;;;20.96;30.04;97749.47;4978182;28;830;-78
2022/09/19 01:11:56;;;;;;;;;;;;;;;21.09;29.85;97747.50;4978566;28;767;-78
2022/09/19 01:14:30;;;;;;;;;;;;;;;21.13;29.85;97748.16;4996706;28;803;-78
2022/09/19 01:16:59;;;;;;;;;;;;;;;21.27;29.59;97741.31;5037262;28;923;-78
2022/09/19 01:19:35;;;;;;;;;;;;;;;21.25;29.82;97738.16;5020579;28;939;-77
2022/09/19 01:22:05;;;;;;;;;;;;;;;21.23;29.93;97730.09;5037206;28;731;-78
2022/09/19 01:24:50;;;;;;;;;;;;;;;20.98;30.57;97730.00;5020487;28;1175;-78
2022/09/19 01:27:22;;;;;;;;;;;;;;;21.09;30.40;97730.53;5003625;28;1902;-78
2022/09/19 01:29:52;;;;;;;;;;;;;;;21.12;30.19;97729.59;5032304;28;1036;-78
2022/09/19 01:32:22;;;;;;;;;;;;;;;21.11;30.45;97727.25;4984464;28;771;-78
2022/09/19 01:34:56;;;;;;;;;;;;;;;21.23;30.27;97724.44;5000609;28;1247;-78
2022/09/19 01:37:30;;;;;;;;;;;;;;;21.20;30.37;97724.56;4984572;28;1189;-78
2022/09/19 01:40:00;;;;;;;;;;;;;;;21.22;30.55;97722.84;4984501;28;1590;-78
2022/09/19 01:42:26;;;;;;;;;;;;;;;21.12;30.74;97726.78;4958531;29;1290;-78
2022/09/19 01:44:56;;;;;;;;;;;;;;;21.30;30.49;97735.59;4958418;29;1195;-77
2022/09/19 01:47:32;;;;;;;;;;;;;;;21.10;31.18;97726.44;4958235;28;1919;-78
2022/09/19 01:50:00;;;;;;;;;;;;;;;21.45;30.61;97729.47;4974475;28;1167;-78
2022/09/19 01:56:19;;;;;;;;;;;;;;;21.21;31.04;97738.25;4977842;28;760;-78
2022/09/19 01:58:54;;;;;;;;;;;;;;;21.23;30.74;97735.75;4977520;28;1253;-78
2022/09/19 02:01:32;;;;;;;;;;;;;;;21.40;30.64;97735.69;4961757;28;1065;-78
2022/09/19 02:04:01;;;;;;;;;;;;;;;21.21;30.79;97737.44;4957971;29;1248;-78
2022/09/19 02:06:47;;;;;;;;;;;;;;;21.26;30.85;97736.91;4942067;29;1184;-78
2022/09/19 02:09:20;;;;;;;;;;;;;;;21.23;30.91;97735.75;4941936;29;1903;-78
2022/09/19 02:11:47;;;;;;;;;;;;;;;21.16;30.92;97746.50;4942190;29;1443;-78
2022/09/19 02:14:16;;;;;;;;;;;;;;;21.21;30.99;97740.28;4977033;28;917;-78
2022/09/19 02:16:47;;;;;;;;;;;;;;;21.23;30.71;97741.41;4981205;28;1415;-78
2022/09/19 02:19:14;;;;;;;;;;;;;;;21.12;31.13;97752.25;4980751;28;1269;-78
2022/09/19 02:21:41;;;;;;;;;;;;;;;21.05;30.86;97752.47;4980390;28;1090;-78
2022/09/19 02:24:10;;;;;;;;;;;;;;;21.20;30.67;97753.63;4980011;28;823;-78
2022/09/19 02:26:36;;;;;;;;;;;;;;;21.42;30.91;97759.50;4981371;28;1599;-78
2022/09/19 02:29:01;;;;;;;;;;;;;;;21.54;31.04;97755.09;4979930;28;1906;-77
2022/09/19 02:31:30;;;;;;;;;;;;;;;21.78;30.80;97759.19;4980444;28;1255;-79
2022/09/19 02:33:56;;;;;;;;;;;;;;;21.43;30.88;97754.63;4999927;28;1175;-77
2022/09/19 02:36:42;;;;;;;;;;;;;;;21.30;31.26;97758.22;5020603;28;1294;-78
2022/09/19 02:39:22;;;;;;;;;;;;;;;21.32;30.95;97763.44;5003847;28;1240;-78
2022/09/19 02:41:59;;;;;;;;;;;;;;;21.31;30.80;97768.28;5005286;28;1109;-78
2022/09/19 02:44:24;;;;;;;;;;;;;;;21.17;31.26;97763.00;5003875;28;743;-78
2022/09/19 02:47:11;;;;;;;;;;;;;;;21.28;31.16;97766.31;5036557;28;1064;-77
2022/09/19 02:49:38;;;;;;;;;;;;;;;21.31;31.13;97767.50;5003595;28;1218;-78
2022/09/19 02:52:28;;;;;;;;;;;;;;;21.28;31.13;97774.03;5036769;28;1266;-78
2022/09/19 02:54:54;;;;;;;;;;;;;;;21.07;31.26;97783.91;4960268;28;1472;-78
2022/09/19 02:57:20;;;;;;;;;;;;;;;21.01;31.15;97780.03;4928093;28;1117;-78
2022/09/19 02:59:46;;;;;;;;;;;;;;;20.97;31.43;97779.34;4928345;28;1215;-78
2022/09/19 03:02:16;;;;;;;;;;;;;;;21.26;30.75;97779.34;4921541;29;1481;-78
2022/09/19 03:04:42;;;;;;;;;;;;;;;21.04;30.91;97784.81;4922051;29;1077;-78
2022/09/19 03:07:14;;;;;;;;;;;;;;;21.09;30.71;97787.09;4906222;29;1973;-78
2022/09/19 03:09:47;;;;;;;;;;;;;;;21.11;30.97;97795.94;4922108;29;1156;-78
2022/09/19 03:12:20;;;;;;;;;;;;;;;21.25;30.50;97795.53;4906082;29;1161;-78
2022/09/19 03:14:47;;;;;;;;;;;;;;;21.06;30.93;97793.66;4921923;29;1230;-78
2022/09/19 03:17:16;;;;;;;;;;;;;;;21.20;30.50;97786.81;4906412;29;1176;-78
2022/09/19 03:19:45;;;;;;;;;;;;;;;21.15;30.72;97796.63;4921933;29;1216;-77
2022/09/19 03:22:11;;;;;;;;;;;;;;;21.18;30.39;97790.06;4921565;29;843;-78
2022/09/19 03:24:37;;;;;;;;;;;;;;;21.06;30.78;97787.97;4922012;29;1165;-78
2022/09/19 03:27:03;;;;;;;;;;;;;;;20.88;31.02;97793.31;4906006;29;1906;-77
2022/09/19 03:29:29;;;;;;;;;;;;;;;20.91;31.09;97798.09;4906218;29;740;-77
2022/09/19 03:31:57;;;;;;;;;;;;;;;20.93;30.57;97789.94;4942925;28;1256;-78
2022/09/19 03:34:23;;;;;;;;;;;;;;;21.11;30.16;97790.28;5003192;28;1244;-77
2022/09/19 03:36:50;;;;;;;;;;;;;;;20.86;30.72;97792.97;5003360;28;1176;-77
2022/09/19 03:39:21;;;;;;;;;;;;;;;20.75;31.07;97791.22;5019016;28;1405;-77
2022/09/19 03:41:50;;;;;;;;;;;;;;;21.23;30.83;97786.69;5019585;28;1288;-77
2022/09/19 03:44:17;;;;;;;;;;;;;;;21.36;31.26;97794.47;5002885;28;1295;-77
2022/09/19 03:46:46;;;;;;;;;;;;;;;21.59;31.14;97802.66;5019407;28;1056;-77
2022/09/19 03:49:11;;;;;;;;;;;;;;;21.30;31.27;97803.50;4987181;28;1985;-78
2022/09/19 03:51:37;;;;;;;;;;;;;;;21.06;31.57;97813.44;5004759;28;1285;-77
2022/09/19 03:54:04;;;;;;;;;;;;;;;21.04;31.54;97813.91;4991075;28;1245;-77
2022/09/19 03:56:38;;;;;;;;;;;;;;;20.96;31.51;97811.69;5022898;28;1338;-77
2022/09/19 03:59:05;;;;;;;;;;;;;;;20.92;31.67;97808.97;5039708;28;1155;-77
2022/09/19 04:01:31;;;;;;;;;;;;;;;21.08;31.42;97814.56;5006901;28;1365;-77
2022/09/19 04:03:58;;;;;;;;;;;;;;;21.07;31.29;97809.38;4999046;28;1353;-78
2022/09/19 04:06:23;;;;;;;;;;;;;;;21.17;31.24;97811.09;4966759;28;1259;-77
2022/09/19 04:12:23;;;;;;;;;;;;;;;20.92;31.77;97813.81;4998817;28;811;-77
2022/09/19 04:14:49;;;;;;;;;;;;;;;21.07;31.42;97817.84;4999009;28;1253;-77
2022/09/19 04:17:15;;;;;;;;;;;;;;;21.09;31.38;97815.41;4950354;28;1272;-77
2022/09/19 04:19:42;;;;;;;;;;;;;;;21.05;31.31;97809.03;4998549;28;1247;-77
2022/09/19 04:22:27;;;;;;;;;;;;;;;21.49;31.35;97803.78;4946958;29;981;-77
2022/09/19 04:25:16;;;;;;;;;;;;;;;21.63;31.17;97797.69;4927900;29;984;-77
2022/09/19 04:28:03;;;;;;;;;;;;;;;21.43;31.11;97800.69;4940690;29;1899;-78
2022/09/19 04:30:32;;;;;;;;;;;;;;;21.41;30.96;97813.72;4940390;29;1117;-77
2022/09/19 04:33:00;;;;;;;;;;;;;;;21.29;31.06;97813.19;4924893;29;1189;-78
2022/09/19 04:35:27;;;;;;;;;;;;;;;21.39;30.83;97816.19;4937998;29;1286;-77
2022/09/19 04:37:54;;;;;;;;;;;;;;;21.39;31.13;97805.66;4924801;29;1203;-78
2022/09/19 04:40:21;;;;;;;;;;;;;;;21.30;31.16;97803.50;4908760;29;1273;-78
2022/09/19 04:42:47;;;;;;;;;;;;;;;21.41;30.92;97797.53;4940413;29;1141;-78
2022/09/19 04:45:20;;;;;;;;;;;;;;;21.24;31.29;97793.13;4924930;29;1258;-77
2022/09/19 04:51:33;;;;;;;;;;;;;;;21.01;31.60;97802.66;4940180;29;945;-77
2022/09/19 04:53:59;;;;;;;;;;;;;;;21.19;31.34;97810.66;4940272;29;1062;-77
2022/09/19 04:56:26;;;;;;;;;;;;;;;21.00;31.48;97812.41;4908651;29;1261;-77
2022/09/19 04:58:52;;;;;;;;;;;;;;;20.96;31.67;97804.00;4934727;29;1125;-77
2022/09/19 05:01:18;;;;;;;;;;;;;;;20.76;31.74;97803.34;4936155;28;1176;-77
2022/09/19 05:03:43;;;;;;;;;;;;;;;20.75;31.64;97802.53;4980539;28;802;-77
2022/09/19 05:06:11;;;;;;;;;;;;;;;20.73;31.77;97799.38;4981759;28;1375;-77
2022/09/19 05:08:37;;;;;;;;;;;;;;;20.95;31.56;97810.91;4997079;28;1918;-77
2022/09/19 05:11:09;;;;;;;;;;;;;;;20.92;31.25;97811.78;5021428;28;1264;-78
2022/09/19 05:13:37;;;;;;;;;;;;;;;20.95;31.07;97804.47;5000786;28;1192;-78
2022/09/19 05:16:03;;;;;;;;;;;;;;;20.95;31.03;97815.78;4984845;28;1196;-78
2022/09/19 05:18:35;;;;;;;;;;;;;;;20.91;31.10;97798.88;5017047;28;1215;-77
2022/09/19 05:21:07;;;;;;;;;;;;;;;20.86;30.93;97807.13;4984778;28;1209;-77
2022/09/19 05:23:32;;;;;;;;;;;;;;;20.84;31.15;97809.63;5000665;28;936;-77
2022/09/19 05:26:02;;;;;;;;;;;;;;;21.04;30.75;97818.75;4984479;28;1183;-77
2022/09/19 05:28:28;;;;;;;;;;;;;;;21.28;31.21;97828.56;4984379;28;1922;-77
2022/09/19 05:30:55;;;;;;;;;;;;;;;21.56;30.78;97826.22;5000652;28;1135;-78
2022/09/19 05:33:26;;;;;;;;;;;;;;;21.34;30.77;97820.38;5016779;28;1114;-78
2022/09/19 05:35:53;;;;;;;;;;;;;;;20.98;31.25;97820.53;5000795;28;1116;-77
2022/09/19 05:38:36;;;;;;;;;;;;;;;21.04;31.18;97827.25;5002542;28;1250;-77
2022/09/19 05:41:21;;;;;;;;;;;;;;;20.96;31.10;97828.66;4945030;29;1000;-77
2022/09/19 05:43:54;;;;;;;;;;;;;;;20.99;30.78;97833.44;4942720;29;1292;-77
2022/09/19 05:46:20;;;;;;;;;;;;;;;20.97;30.88;97835.91;4958514;29;1168;-77
2022/09/19 05:48:48;;;;;;;;;;;;;;;21.03;30.69;97839.78;4958209;29;1911;-77
2022/09/19 05:51:14;;;;;;;;;;;;;;;21.01;31.01;97836.63;4958424;29;1086;-77
2022/09/19 05:53:56;;;;;;;;;;;;;;;21.05;30.49;97832.47;4942445;29;908;-77
2022/09/19 05:56:49;;;;;;;;;;;;;;;21.39;30.50;97839.63;4947225;29;1192;-77
2022/09/19 05:59:16;;;;;;;;;;;;;;;21.63;29.94;97837.34;4957832;29;1215;-77
2022/09/19 06:01:43;;;;;;;;;;;;;;;21.30;30.63;97848.00;4958227;29;1188;-77
2022/09/19 06:04:25;;;;;;;;;;;;;;;21.29;30.29;97847.13;4958440;29;1117;-78
2022/09/19 06:06:51;;;;;;;;;;;;;;;21.11;30.42;97846.84;4958144;29;1242;-77
2022/09/19 06:09:17;;;;;;;;;;;;;;;21.02;30.56;97855.16;4957983;29;1907;-77
2022/09/19 06:11:42;;;;;;;;;;;;;;;21.13;30.69;97854.88;4958062;29;1271;-77
2022/09/19 06:14:14;;;;;;;;;;;;;;;20.94;30.73;97860.25;4957921;28;1227;-77
2022/09/19 06:16:41;;;;;;;;;;;;;;;20.91;30.58;97860.31;4912202;29;1224;-76
2022/09/19 06:19:19;;;;;;;;;;;;;;;20.85;30.81;97856.44;5011450;28;948;-77
2022/09/19 06:21:51;;;;;;;;;;;;;;;20.98;30.48;97860.91;4990207;28;1227;-77
2022/09/19 06:24:17;;;;;;;;;;;;;;;21.00;30.52;97858.44;5004331;28;1190;-77
2022/09/19 06:26:43;;;;;;;;;;;;;;;20.83;30.66;97858.91;5020519;28;1156;-77
2022/09/19 06:29:09;;;;;;;;;;;;;;;21.11;30.91;97858.16;5036553;28;1918;-77
2022/09/19 06:31:38;;;;;;;;;;;;;;;21.51;30.06;97864.38;5020777;28;1320;-77
2022/09/19 06:34:17;;;;;;;;;;;;;;;21.15;30.71;97858.88;5020011;28;1207;-77
2022/09/19 06:37:35;;;;;;;;;;;;;;;21.16;30.39;97854.78;4986801;28;1009;-78
2022/09/19 06:40:02;;;;;;;;;;;;;;;21.32;30.00;97863.28;4964381;28;1164;-77
2022/09/19 06:42:46;;;;;;;;;;;;;;;21.10;30.48;97850.94;4957333;29;1241;-77
2022/09/19 06:48:52;;;;;;;;;;;;;;;20.96;30.60;97866.22;4957142;29;1930;-77
2022/09/19 06:51:35;;;;;;;;;;;;;;;20.92;30.94;97868.34;4927868;29;1415;-77
2022/09/19 06:54:02;;;;;;;;;;;;;;;21.08;30.28;97861.88;4941560;29;1168;-77
2022/09/19 06:56:28;;;;;;;;;;;;;;;21.32;30.16;97863.28;4941591;29;1211;-77
2022/09/19 06:58:53;;;;;;;;;;;;;;;21.55;30.04;97875.56;4925588;29;955;-77
2022/09/19 07:01:19;;;;;;;;;;;;;;;21.47;30.06;97866.50;4941128;29;1091;-77
2022/09/19 07:03:45;;;;;;;;;;;;;;;21.14;30.41;97867.78;4941295;29;1124;-77
2022/09/19 07:06:17;;;;;;;;;;;;;;;21.10;30.46;97850.94;4926155;29;1192;-77
2022/09/19 07:08:57;;;;;;;;;;;;;;;21.26;30.03;97870.69;4940904;29;1903;-77
2022/09/19 07:11:24;;;;;;;;;;;;;;;20.98;30.66;97866.56;4940773;29;1178;-77
2022/09/19 07:13:50;;;;;;;;;;;;;;;20.93;30.62;97863.50;4976466;28;1169;-77
2022/09/19 07:16:17;;;;;;;;;;;;;;;21.19;30.11;97862.41;5015114;28;1137;-77
2022/09/19 07:18:42;;;;;;;;;;;;;;;21.08;30.34;97861.88;5015412;28;1161;-77
2022/09/19 07:21:28;;;;;;;;;;;;;;;20.95;30.69;97863.84;4981816;28;963;-77
2022/09/19 07:23:58;;;;;;;;;;;;;;;21.17;30.49;97862.03;4995355;28;1119;-77
2022/09/19 07:26:46;;;;;;;;;;;;;;;21.70;29.58;97864.63;5003335;28;1167;-78
2022/09/19 07:29:15;;;;;;;;;;;;;;;21.43;29.95;97873.50;4962956;28;1902;-77
2022/09/19 07:31:41;;;;;;;;;;;;;;;21.32;29.94;97868.94;4978552;28;1244;-77
2022/09/19 07:34:06;;;;;;;;;;;;;;;21.02;30.44;97866.50;4962728;28;1254;-77
2022/09/19 07:36:40;;;;;;;;;;;;;;;21.37;29.76;97863.97;4978787;28;1168;-77
2022/09/19 07:39:05;;;;;;;;;;;;;;;20.94;30.42;97873.59;4962881;28;1308;-77
2022/09/19 07:41:51;;;;;;;;;;;;;;;20.91;30.69;97871.63;4976044;28;971;-78
2022/09/19 07:44:40;;;;;;;;;;;;;;;20.98;30.46;97872.22;4956723;29;985;-77
2022/09/19 07:47:28;;;;;;;;;;;;;;;20.91;30.75;97874.47;4947345;28;1922;-77
2022/09/19 07:50:09;;;;;;;;;;;;;;;20.95;30.53;97872.34;4934045;29;1065;-77
2022/09/19 07:52:37;;;;;;;;;;;;;;;21.16;30.34;97877.44;4934456;29;1134;-77
2022/09/19 07:55:05;;;;;;;;;;;;;;;20.96;30.18;97876.75;4934094;29;1305;-77
2022/09/19 07:57:32;;;;;;;;;;;;;;;20.95;30.60;97872.34;4933724;29;1247;-77
2022/09/19 07:59:57;;;;;;;;;;;;;;;21.30;30.07;97876.28;4934392;29;1176;-77
2022/09/19 08:02:24;;;;;;;;;;;;;;;21.45;29.80;97871.81;4934142;29;1254;-77
2022/09/19 08:04:50;;;;;;;;;;;;;;;21.41;29.84;97864.66;4934215;29;1523;-77
2022/09/19 08:07:17;;;;;;;;;;;;;;;21.24;30.12;97861.88;4956117;29;1985;-77
2022/09/19 08:09:44;;;;;;;;;;;;;;;21.14;30.30;97862.94;4940635;29;1212;-77
2022/09/19 08:12:17;;;;;;;;;;;;;;;21.03;30.43;97868.06;4941243;29;1263;-77
2022/09/19 08:14:47;;;;;;;;;;;;;;;20.96;30.35;97857.75;4956435;29;1008;-77
2022/09/19 08:17:14;;;;;;;;;;;;;;;21.06;30.30;97855.88;4940182;29;1182;-77
2022/09/19 08:19:41;;;;;;;;;;;;;;;21.02;30.56;97860.84;4971929;28;1179;-77
2022/09/19 08:22:07;;;;;;;;;;;;;;;21.12;30.26;97865.41;4930435;29;1295;-77
2022/09/19 08:24:38;;;;;;;;;;;;;;;21.07;30.10;97851.81;4972231;28;1247;-77
2022/09/19 08:27:11;;;;;;;;;;;;;;;21.05;30.28;97848.63;5014175;28;1276;-77
2022/09/19 08:29:38;;;;;;;;;;;;;;;21.09;30.20;97855.00;4982144;28;2037;-78
2022/09/19 08:32:11;;;;;;;;;;;;;;;21.14;30.10;97854.47;5014594;28;1206;-77
2022/09/19 08:34:37;;;;;;;;;;;;;;;20.89;30.61;97852.28;4982048;28;1167;-77
2022/09/19 08:37:04;;;;;;;;;;;;;;;20.72;30.99;97845.84;4975858;28;1250;-78
2022/09/19 08:39:32;;;;;;;;;;;;;;;20.93;30.46;97857.84;4978934;28;1282;-77
2022/09/19 08:42:16;;;;;;;;;;;;;;;21.05;30.29;97842.97;4978843;28;1263;-77
2022/09/19 08:44:49;;;;;;;;;;;;;;;20.87;30.62;97839.81;4962681;28;1204;-78
2022/09/19 08:47:17;;;;;;;;;;;;;;;20.74;30.68;97845.41;4972473;28;1918;-77
2022/09/19 08:49:46;;;;;;;;;;;;;;;20.96;30.52;97843.59;4961251;28;1100;-77
2022/09/19 08:52:13;;;;;;;;;;;;;;;20.88;30.36;97849.88;4972546;28;1284;-77
2022/09/19 08:54:44;;;;;;;;;;;;;;;20.96;30.29;97846.44;4978596;28;1285;-77
2022/09/19 08:57:17;;;;;;;;;;;;;;;20.86;30.77;97846.72;4956696;28;1149;-77
2022/09/19 08:59:43;;;;;;;;;;;;;;;21.18;30.15;97835.31;4978662;28;1084;-78
2022/09/19 09:02:13;;;;;;;;;;;;;;;21.44;30.01;97832.63;4946999;28;1272;-77
2022/09/19 09:04:57;;;;;;;;;;;;;;;21.43;29.72;97833.88;4979189;28;967;-78
2022/09/19 09:07:23;;;;;;;;;;;;;;;21.13;30.41;97833.03;4946614;28;1993;-78
2022/09/19 09:13:51;;;;;;;;;;;;;;;20.96;30.62;97831.50;4978314;28;784;-77
2022/09/19 09:16:19;;;;;;;;;;;;;;;21.10;30.26;97827.50;4978518;28;750;-78
2022/09/19 09:19:17;;;;;;;;;;;;;;;21.22;30.21;97816.22;4962285;28;1129;-78
2022/09/19 09:21:51;;;;;;;;;;;;;;;20.79;30.89;97820.22;4976557;28;1277;-77
2022/09/19 09:24:20;;;;;;;;;;;;;;;20.96;30.45;97817.34;4977712;28;1347;-77
2022/09/19 09:26:57;;;;;;;;;;;;;;;20.98;30.73;97814.88;4976640;28;1101;-78
2022/09/19 09:29:34;;;;;;;;;;;;;;;20.94;30.47;97812.16;4977867;28;1976;-77
2022/09/19 09:32:26;;;;;;;;;;;;;;;20.95;30.70;97810.13;4974613;28;1257;-78
2022/09/19 09:35:26;;;;;;;;;;;;;;;20.85;30.58;97811.19;4980283;28;1180;-78
2022/09/19 09:38:01;;;;;;;;;;;;;;;20.93;30.69;97806.91;4977203;28;1230;-78
2022/09/19 09:43:23;;;;;;;;;;;;;;;20.68;31.10;97811.22;4961545;28;1136;-78
2022/09/19 09:45:53;;;;;;;;;;;;;;;20.83;30.98;97793.88;4962341;28;1129;-78
2022/09/19 09:48:36;;;;;;;;;;;;;;;20.86;30.60;97795.81;4961706;28;1922;-78
2022/09/19 09:51:10;;;;;;;;;;;;;;;21.06;30.42;97793.66;4961583;28;1175;-78
2022/09/19 09:53:48;;;;;;;;;;;;;;;21.00;30.58;97795.44;4978280;28;1650;-78
2022/09/19 09:56:21;;;;;;;;;;;;;;;21.32;30.53;97789.69;4975952;28;1106;-78
2022/09/19 09:58:51;;;;;;;;;;;;;;;21.41;30.23;97782.59;4941969;29;1343;-78
2022/09/19 10:04:13;;;;;;;;;;;;;;;21.24;30.65;97776.97;4942211;29;1279;-78
2022/09/19 10:07:11;;;;;;;;;;;;;;;21.22;30.50;97776.59;4942432;29;1261;-78
2022/09/19 10:09:40;;;;;;;;;;;;;;;21.18;30.49;97781.56;4939295;29;1918;-78
2022/09/19 10:12:14;;;;;;;;;;;;;;;21.31;30.06;97782.44;4926054;29;1248;-78
2022/09/19 10:14:40;;;;;;;;;;;;;;;21.01;30.67;97780.03;4959643;28;1318;-78
2022/09/19 10:17:24;;;;;;;;;;;;;;;21.06;30.64;97790.81;4957152;29;1044;-78
2022/09/19 10:19:55;;;;;;;;;;;;;;;21.07;30.87;97783.91;4941565;29;1097;-78
2022/09/19 10:22:22;;;;;;;;;;;;;;;21.07;30.56;97778.25;4957837;28;1259;-78
2022/09/19 10:24:59;;;;;;;;;;;;;;;21.05;30.72;97775.09;4942795;29;1178;-78
2022/09/19 10:27:32;;;;;;;;;;;;;;;20.95;30.62;97773.34;4942851;29;1907;-78
2022/09/19 10:30:04;;;;;;;;;;;;;;;20.96;30.73;97780.59;4941590;29;1282;-78
2022/09/19 10:32:40;;;;;;;;;;;;;;;20.83;31.04;97768.41;4941598;29;1473;-78
2022/09/19 10:35:30;;;;;;;;;;;;;;;20.99;30.81;97762.75;4945185;29;605;-78
2022/09/19 10:37:59;;;;;;;;;;;;;;;21.16;30.27;97775.56;4958502;28;1241;-78
2022/09/19 10:40:25;;;;;;;;;;;;;;;21.05;30.42;97769.44;4992993;28;1173;-77
2022/09/19 10:42:52;;;;;;;;;;;;;;;20.93;30.82;97767.31;4968700;28;1333;-78
2022/09/19 10:45:26;;;;;;;;;;;;;;;20.90;30.74;97762.59;4995303;28;1171;-78
2022/09/19 10:48:08;;;;;;;;;;;;;;;20.83;30.99;97755.09;4984308;28;1902;-77
2022/09/19 10:50:34;;;;;;;;;;;;;;;21.08;30.28;97754.38;4984125;28;1181;-78
2022/09/19 10:53:15;;;;;;;;;;;;;;;20.93;30.75;97751.16;5000793;28;1333;-78
2022/09/19 10:55:42;;;;;;;;;;;;;;;21.07;30.60;97755.63;4984147;28;1342;-78
2022/09/19 10:58:26;;;;;;;;;;;;;;;21.14;30.28;97755.44;5017935;28;783;-79
2022/09/19 11:01:03;;;;;;;;;;;;;;;21.23;30.63;97752.72;4999319;28;1436;-77
2022/09/19 11:03:40;;;;;;;;;;;;;;;21.43;30.47;97755.41;4985317;28;1134;-78
2022/09/19 11:06:07;;;;;;;;;;;;;;;21.26;30.53;97753.88;4984269;28;1191;-78
2022/09/19 11:08:47;;;;;;;;;;;;;;;21.22;30.61;97751.16;5000692;28;1975;-78
2022/09/19 11:11:36;;;;;;;;;;;;;;;21.16;30.57;97743.66;5000471;28;1107;-78
2022/09/19 11:14:18;;;;;;;;;;;;;;;21.09;30.91;97741.84;4984675;28;1080;-78
2022/09/19 11:17:00;;;;;;;;;;;;;;;20.96;30.81;97738.94;5000332;28;1185;-78
2022/09/19 11:19:49;;;;;;;;;;;;;;;21.04;30.79;97733.91;4983931;28;1303;-78
2022/09/19 11:22:35;;;;;;;;;;;;;;;21.11;30.63;97733.69;4921923;29;1349;-78
2022/09/19 11:25:01;;;;;;;;;;;;;;;21.10;30.53;97726.44;4922290;29;1130;-78
2022/09/19 11:27:33;;;;;;;;;;;;;;;21.08;30.44;97737.41;4922135;29;1915;-78
2022/09/19 11:30:18;;;;;;;;;;;;;;;21.01;30.49;97734.78;4902858;29;1228;-78
2022/09/19 11:32:47;;;;;;;;;;;;;;;21.05;30.37;97735.47;4903190;29;1226;-78
2022/09/19 11:35:23;;;;;;;;;;;;;;;21.01;30.49;97726.31;4903293;29;1486;-79
2022/09/19 11:37:53;;;;;;;;;;;;;;;20.88;30.59;97725.44;4887762;29;1328;-78
2022/09/19 11:43:43;;;;;;;;;;;;;;;20.86;31.00;97723.06;4921588;29;1237;-78
2022/09/19 11:46:08;;;;;;;;;;;;;;;20.81;30.86;97715.94;4921527;29;1327;-78
2022/09/19 11:48:44;;;;;;;;;;;;;;;21.08;31.25;97712.72;4921426;29;1903;-78
2022/09/19 11:51:16;;;;;;;;;;;;;;;21.49;30.45;97707.53;4905759;29;1263;-78
2022/09/19 11:53:48;;;;;;;;;;;;;;;21.32;30.44;97710.44;4921482;29;1140;-78
2022/09/19 11:56:35;;;;;;;;;;;;;;;21.26;30.80;97712.22;4921586;29;1282;-78
2022/09/19 11:59:10;;;;;;;;;;;;;;;21.10;31.00;97703.81;4928527;28;1229;-78
2022/09/19 12:01:40;;;;;;;;;;;;;;;21.26;30.80;97705.78;5011793;28;888;-78
2022/09/19 12:04:14;;;;;;;;;;;;;;;21.00;31.19;97699.25;5015810;28;1285;-78
2022/09/19 12:06:47;;;;;;;;;;;;;;;21.18;30.84;97705.19;4975489;28;1254;-78
2022/09/19 12:09:17;;;;;;;;;;;;;;;21.04;30.93;97694.31;4975671;28;1907;-78
2022/09/19 12:11:50;;;;;;;;;;;;;;;20.98;30.87;97696.06;4976080;28;1187;-78
2022/09/19 12:14:28;;;;;;;;;;;;;;;20.96;30.85;97710.66;4963690;28;1339;-78
2022/09/19 12:16:55;;;;;;;;;;;;;;;20.84;31.45;97694.47;4947398;28;1269;-78
2022/09/19 12:19:40;;;;;;;;;;;;;;;20.96;30.87;97692.91;4947253;28;1220;-78
2022/09/19 12:22:11;;;;;;;;;;;;;;;20.99;30.75;97692.81;4963176;28;1182;-78
2022/09/19 12:24:54;;;;;;;;;;;;;;;21.07;30.61;97682.06;4979166;28;759;-78
2022/09/19 12:27:33;;;;;;;;;;;;;;;20.94;31.03;97684.09;4949523;28;1315;-78
2022/09/19 12:30:39;;;;;;;;;;;;;;;20.99;30.84;97680.72;4979291;28;1132;-78
2022/09/19 12:33:11;;;;;;;;;;;;;;;20.96;30.66;97681.59;4959783;29;1240;-78
2022/09/19 12:35:59;;;;;;;;;;;;;;;21.00;30.58;97687.94;4960215;29;1145;-78
2022/09/19 12:38:30;;;;;;;;;;;;;;;20.97;30.57;97683.19;4922159;29;1307;-77
2022/09/19 12:41:06;;;;;;;;;;;;;;;20.79;31.03;97673.19;4909398;29;1078;-79
2022/09/19 12:43:50;;;;;;;;;;;;;;;20.88;30.69;97677.38;4924826;29;1089;-78
2022/09/19 12:46:31;;;;;;;;;;;;;;;20.77;30.93;97670.00;4924456;29;1275;-78
2022/09/19 12:49:02;;;;;;;;;;;;;;;20.86;30.83;97677.03;4924621;29;1919;-78
2022/09/19 12:55:35;;;;;;;;;;;;;;;21.41;30.97;97677.88;4940010;29;1056;-78
2022/09/19 12:58:09;;;;;;;;;;;;;;;21.35;30.90;97688.13;4939932;29;1317;-78
2022/09/19 13:00:42;;;;;;;;;;;;;;;21.05;31.09;97681.75;4924258;29;1137;-79
2022/09/19 13:03:44;;;;;;;;;;;;;;;21.12;31.02;97687.16;4939860;29;1062;-78
2022/09/19 13:06:11;;;;;;;;;;;;;;;20.95;31.47;97680.00;4933610;29;1126;-78
2022/09/19 13:08:41;;;;;;;;;;;;;;;21.25;30.57;97682.34;4904189;29;1903;-78
2022/09/19 13:11:27;;;;;;;;;;;;;;;20.86;31.42;97688.34;4902264;29;803;-78
2022/09/19 13:13:56;;;;;;;;;;;;;;;21.04;30.84;97685.81;4902190;29;1205;-78
2022/09/19 13:16:29;;;;;;;;;;;;;;;20.88;31.02;97685.84;4952912;29;1003;-78
2022/09/19 13:24:25;;;;;;;;;;;;;;;20.90;30.87;97674.91;5003829;28;1298;-78
2022/09/19 13:26:54;;;;;;;;;;;;;;;20.97;30.67;97671.84;5001694;28;818;-78
2022/09/19 13:29:29;;;;;;;;;;;;;;;20.96;30.65;97676.72;5018260;28;1915;-78
2022/09/19 13:32:01;;;;;;;;;;;;;;;20.90;31.13;97666.44;4958452;29;1045;-78
2022/09/19 13:34:32;;;;;;;;;;;;;;;20.88;31.04;97663.22;4942699;29;814;-78
2022/09/19 13:36:59;;;;;;;;;;;;;;;20.88;30.79;97658.41;4958040;29;885;-78
2022/09/19 13:39:51;;;;;;;;;;;;;;;21.09;30.66;97662.63;4954503;28;1071;-79
2022/09/19 13:42:27;;;;;;;;;;;;;;;20.98;30.53;97667.78;4976812;28;806;-79
2022/09/19 13:45:01;;;;;;;;;;;;;;;20.84;30.75;97656.91;4960936;28;792;-78
2022/09/19 13:47:27;;;;;;;;;;;;;;;20.76;30.87;97645.78;4977891;28;1906;-78
2022/09/19 13:50:13;;;;;;;;;;;;;;;20.85;30.74;97652.84;4961692;28;807;-78
2022/09/19 13:52:45;;;;;;;;;;;;;;;21.26;30.77;97644.31;4962003;28;1101;-78
2022/09/19 13:55:14;;;;;;;;;;;;;;;21.40;30.56;97645.13;4961974;28;877;-78
2022/09/19 13:57:42;;;;;;;;;;;;;;;21.36;30.44;97655.78;4961093;28;1346;-78
2022/09/19 14:00:28;;;;;;;;;;;;;;;21.12;30.90;97644.75;4961569;28;898;-78